Time;durP1;ratioP1;P1;durP2;ratioP2;P2;SDS_P1;SDS_P2;PMS_P1;PMS_P2;Temp;Humidity;BMP_temperature;BMP_pressure;BME280_temperature;BME280_humidity;BME280_pressure;Samples;Min_cycle;Max_cycle;Signal;HPM_P1;HPM_P2
2022/09/12 00:00:05;;;;;;;8.77;2.27;;;;;;;15.27;97.11;100040.13;1446545;89;21481;-76
2022/09/12 00:02:31;;;;;;;2.53;1.80;;;;;;;15.22;97.06;100031.86;1451495;89;21489;-76
2022/09/12 00:04:59;;;;;;;3.20;2.40;;;;;;;15.25;96.49;100035.00;1454416;89;22604;-76
2022/09/12 00:07:25;;;;;;;5.47;2.47;;;;;;;15.22;96.02;100035.38;1451093;90;23668;-76
2022/09/12 00:09:51;;;;;;;3.47;2.37;;;;;;;15.21;95.09;100032.38;1445815;90;21607;-77
2022/09/12 00:12:17;;;;;;;5.77;2.70;;;;;;;15.20;93.90;100028.58;1426904;90;23459;-76
2022/09/12 00:14:43;;;;;;;4.50;2.77;;;;;;;15.16;92.35;100025.44;1446190;90;21482;-76
2022/09/12 00:17:09;;;;;;;4.27;2.70;;;;;;;15.15;92.25;100026.97;1452863;90;22408;-76
2022/09/12 00:19:35;;;;;;;8.90;3.03;;;;;;;15.10;92.10;100029.70;1438024;90;21503;-77
2022/09/12 00:22:02;;;;;;;5.23;2.30;;;;;;;15.06;91.67;100032.41;1450036;89;21312;-77
2022/09/12 00:24:28;;;;;;;4.23;2.57;;;;;;;15.01;90.91;100037.97;1447980;90;21556;-77
2022/09/12 00:26:54;;;;;;;4.50;2.93;;;;;;;14.97;90.55;100030.05;1443679;90;21290;-76
2022/09/12 00:29:21;;;;;;;10.70;3.53;;;;;;;14.95;91.02;100030.73;1448693;90;21379;-76
2022/09/12 00:31:47;;;;;;;4.70;3.23;;;;;;;14.92;91.39;100031.09;1448684;90;21489;-76
2022/09/12 00:34:14;;;;;;;4.50;3.40;;;;;;;14.86;90.49;100033.48;1425450;90;21423;-76
2022/09/12 00:36:40;;;;;;;8.87;3.77;;;;;;;14.78;91.04;100028.77;1454850;90;21504;-76
2022/09/12 00:39:08;;;;;;;5.23;3.30;;;;;;;14.68;90.70;100031.72;1450029;89;21349;-77
2022/09/12 00:41:38;;;;;;;4.13;2.70;;;;;;;14.65;90.81;100041.41;1447536;90;21399;-76
2022/09/12 00:44:25;;;;;;;4.40;3.22;;;;;;;14.56;90.96;100041.17;1454147;89;21488;-77
2022/09/12 00:47:02;;;;;;;7.13;2.70;;;;;;;14.48;90.98;100039.89;1447905;90;21556;-77
2022/09/12 00:49:36;;;;;;;5.03;2.53;;;;;;;14.39;91.02;100033.83;1449184;90;21466;-77
2022/09/12 00:52:22;;;;;;;8.50;3.63;;;;;;;14.29;91.54;100035.40;1446480;90;21614;-77
2022/09/12 00:55:02;;;;;;;5.10;4.03;;;;;;;14.20;91.75;100035.16;1447177;90;22362;-76
2022/09/12 00:57:34;;;;;;;5.28;3.25;;;;;;;14.13;92.19;100042.23;1421927;91;21504;-76
2022/09/12 01:00:13;;;;;;;7.97;3.23;;;;;;;14.06;92.31;100041.28;1441405;90;21474;-76
2022/09/12 01:02:42;;;;;;;4.27;3.00;;;;;;;14.04;92.67;100041.95;1439795;90;21393;-76
2022/09/12 01:05:09;;;;;;;5.53;3.27;;;;;;;14.00;93.06;100036.98;1450809;90;22376;-76
2022/09/12 01:07:37;;;;;;;6.70;3.53;;;;;;;13.99;93.26;100041.17;1453309;90;21422;-77
2022/09/12 01:10:06;;;;;;;6.27;2.90;;;;;;;13.98;93.45;100036.84;1442055;89;21407;-76
2022/09/12 01:12:35;;;;;;;6.23;3.57;;;;;;;13.96;93.73;100034.88;1435809;90;21498;-77
2022/09/12 01:15:02;;;;;;;5.27;3.67;;;;;;;13.94;93.90;100035.05;1446329;89;22513;-77
2022/09/12 01:17:39;;;;;;;8.00;4.20;;;;;;;13.91;94.28;100036.73;1433630;91;21416;-76
2022/09/12 01:20:38;;;;;;;3.93;3.53;;;;;;;13.86;94.17;100041.77;1438337;90;22375;-75
2022/09/12 01:23:22;;;;;;;9.57;4.03;;;;;;;13.85;95.29;100045.95;1441398;90;21631;-76
2022/09/12 01:26:00;;;;;;;3.77;3.00;;;;;;;13.87;95.22;100035.45;1448291;90;21400;-75
2022/09/12 01:29:02;;;;;;;13.00;3.77;;;;;;;13.89;95.09;100034.75;1430472;90;21666;-76
2022/09/12 01:31:46;;;;;;;6.57;3.33;;;;;;;13.92;96.05;100035.72;1445789;90;22023;-76
2022/09/12 01:34:40;;;;;;;8.43;3.57;;;;;;;13.97;94.96;100040.01;1450715;90;21489;-76
2022/09/12 01:37:31;;;;;;;7.10;3.90;;;;;;;13.97;94.46;100038.68;1442553;90;21452;-76
2022/09/12 01:40:15;;;;;;;6.97;3.62;;;;;;;13.96;94.65;100041.53;1449087;90;22370;-75
2022/09/12 01:42:47;;;;;;;4.53;3.00;;;;;;;13.92;93.74;100039.72;1443023;90;21548;-76
2022/09/12 01:45:21;;;;;;;10.33;3.70;;;;;;;13.87;93.72;100032.80;1450915;90;21622;-77
2022/09/12 01:47:55;;;;;;;5.63;3.70;;;;;;;13.89;93.17;100035.26;1452713;90;21444;-77
2022/09/12 01:50:35;;;;;;;11.30;3.53;;;;;;;13.88;92.65;100034.95;1443559;90;21563;-77
2022/09/12 01:53:13;;;;;;;6.30;3.30;;;;;;;13.91;93.03;100037.25;1445744;90;21437;-77
2022/09/12 01:55:45;;;;;;;4.67;3.40;;;;;;;13.91;92.40;100034.08;1450899;90;22576;-77
2022/09/12 01:58:22;;;;;;;13.10;3.60;;;;;;;13.90;91.99;100037.75;1445706;90;21903;-77
2022/09/12 02:01:03;;;;;;;6.53;3.37;;;;;;;13.87;92.51;100037.30;1446586;89;21526;-76
2022/09/12 02:03:40;;;;;;;6.80;3.17;;;;;;;13.86;92.98;100040.94;1428862;91;21534;-77
2022/09/12 02:06:12;;;;;;;9.50;4.07;;;;;;;13.86;93.18;100039.10;1444257;90;21378;-77
2022/09/12 02:08:44;;;;;;;7.23;3.53;;;;;;;13.89;92.84;100037.41;1443479;90;22435;-78
2022/09/12 02:11:11;;;;;;;4.73;3.10;;;;;;;13.89;92.07;100037.92;1457706;90;21489;-78
2022/09/12 02:13:45;;;;;;;8.03;3.53;;;;;;;13.85;92.19;100035.30;1454490;90;22361;-77
2022/09/12 02:16:20;;;;;;;7.97;3.63;;;;;;;13.84;92.13;100038.47;1439948;90;21407;-78
2022/09/12 02:18:51;;;;;;;8.37;3.57;;;;;;;13.81;91.98;100039.31;1441528;90;22480;-77
2022/09/12 02:21:20;;;;;;;9.17;3.43;;;;;;;13.78;91.95;100033.84;1422225;90;21570;-78
2022/09/12 02:23:52;;;;;;;9.57;3.20;;;;;;;13.76;92.55;100034.55;1448005;90;21534;-78
2022/09/12 02:26:31;;;;;;;5.83;3.50;;;;;;;13.77;92.70;100040.17;1451984;90;21569;-77
2022/09/12 02:28:58;;;;;;;8.30;3.33;;;;;;;13.76;93.78;100040.68;1448665;90;21474;-78
2022/09/12 02:31:41;;;;;;;5.80;3.63;;;;;;;13.77;93.29;100037.52;1445746;89;21445;-79
2022/09/12 02:34:28;;;;;;;7.23;3.53;;;;;;;13.79;93.34;100035.52;1451771;90;21400;-79
2022/09/12 02:37:09;;;;;;;4.80;3.90;;;;;;;13.79;93.27;100035.52;1449908;90;21525;-77
2022/09/12 02:39:35;;;;;;;9.33;3.85;;;;;;;13.81;92.90;100028.67;1452476;90;22421;-77
2022/09/12 02:42:03;;;;;;;6.80;4.60;;;;;;;13.80;92.98;100037.16;1455869;89;21507;-77
2022/09/12 02:44:32;;;;;;;8.77;4.60;;;;;;;13.77;92.37;100034.86;1451847;90;21341;-77
2022/09/12 02:47:06;;;;;;;6.70;3.70;;;;;;;13.70;92.30;100028.09;1442588;90;22353;-77
2022/09/12 02:49:33;;;;;;;23.03;5.83;;;;;;;13.62;92.10;100030.81;1447056;90;22158;-77
2022/09/12 02:52:01;;;;;;;6.67;3.70;;;;;;;13.53;91.81;100024.72;1444856;90;21395;-77
2022/09/12 02:54:28;;;;;;;8.37;4.03;;;;;;;13.47;92.70;100029.42;1433983;90;21637;-77
2022/09/12 02:56:54;;;;;;;14.27;4.03;;;;;;;13.40;92.25;100026.30;1452402;90;21651;-77
2022/09/12 02:59:23;;;;;;;4.30;3.73;;;;;;;13.35;92.13;100033.97;1448982;90;21415;-76
2022/09/12 03:02:17;;;;;;;6.63;3.93;;;;;;;13.28;92.18;100035.17;1442076;90;21445;-77
2022/09/12 03:04:55;;;;;;;5.87;3.87;;;;;;;13.20;92.82;100028.54;1443858;89;21341;-76
2022/09/12 03:07:45;;;;;;;10.70;4.93;;;;;;;13.10;93.06;100030.92;1448493;89;22295;-76
2022/09/12 03:10:25;;;;;;;6.78;3.50;;;;;;;13.01;94.40;100030.64;1447756;90;22368;-76
2022/09/12 03:13:18;;;;;;;13.90;4.00;;;;;;;12.93;95.91;100034.65;1447605;90;21438;-76
2022/09/12 03:16:28;;;;;;;7.73;3.93;;;;;;;12.86;95.36;100036.35;1441475;90;21430;-76
2022/09/12 03:19:15;;;;;;;6.40;3.73;;;;;;;12.81;95.88;100039.52;1423768;90;21970;-76
2022/09/12 03:22:16;;;;;;;10.53;3.50;;;;;;;12.82;95.40;100041.16;1440637;90;21593;-76
2022/09/12 03:25:16;;;;;;;6.70;3.73;;;;;;;12.83;95.45;100044.63;1449493;90;21429;-76
2022/09/12 03:27:56;;;;;;;6.37;4.03;;;;;;;12.77;95.61;100046.65;1446500;89;21444;-77
2022/09/12 03:30:22;;;;;;;8.88;5.72;;;;;;;12.65;96.31;100045.69;1451723;90;21452;-76
2022/09/12 03:32:51;;;;;;;6.23;4.63;;;;;;;12.58;96.28;100047.37;1443350;89;21415;-78
2022/09/12 03:35:22;;;;;;;19.30;5.03;;;;;;;12.50;96.63;100051.38;1462035;90;22010;-78
2022/09/12 03:37:50;;;;;;;8.83;3.93;;;;;;;12.45;97.58;100053.70;1444235;90;21378;-78
2022/09/12 03:40:16;;;;;;;9.40;3.70;;;;;;;12.40;97.04;100058.20;1437693;88;21503;-79
2022/09/12 03:42:43;;;;;;;11.00;4.93;;;;;;;12.37;97.36;100054.56;1493610;87;21463;-79
2022/09/12 03:45:10;;;;;;;4.47;3.60;;;;;;;12.35;97.56;100050.42;1495865;87;21286;-79
2022/09/12 03:47:36;;;;;;;13.77;4.50;;;;;;;12.34;97.89;100048.74;1502689;87;22460;-77
2022/09/12 03:50:03;;;;;;;8.93;4.47;;;;;;;12.34;99.06;100047.41;1496203;87;21540;-77
2022/09/12 03:52:29;;;;;;;9.13;4.10;;;;;;;12.36;99.30;100052.06;1494848;87;21464;-77
2022/09/12 03:54:55;;;;;;;11.73;4.10;;;;;;;12.37;98.90;100045.75;1493622;87;21548;-77
2022/09/12 03:57:22;;;;;;;6.03;4.40;;;;;;;12.34;98.52;100052.72;1491551;87;21366;-77
2022/09/12 03:59:49;;;;;;;9.80;4.50;;;;;;;12.33;98.12;100053.22;1499505;87;21448;-78
2022/09/12 04:02:16;;;;;;;10.87;4.77;;;;;;;12.31;98.19;100057.04;1492649;87;21307;-77
2022/09/12 04:04:47;;;;;;;7.00;3.43;;;;;;;12.27;97.69;100053.90;1492483;87;21426;-78
2022/09/12 04:07:12;;;;;;;6.90;3.87;;;;;;;12.26;97.75;100060.72;1506638;87;22247;-78
2022/09/12 04:09:38;;;;;;;5.77;4.47;;;;;;;12.26;100.00;100062.05;1502822;87;21366;-78
2022/09/12 04:12:05;;;;;;;12.70;6.10;;;;;;;12.25;100.00;100058.53;1499273;87;21307;-79
2022/09/12 04:14:31;;;;;;;11.13;4.50;;;;;;;12.22;100.00;100066.83;1495702;86;21475;-78
2022/09/12 04:16:57;;;;;;;8.97;4.87;;;;;;;12.20;99.82;100068.84;1495682;87;21418;-78
2022/09/12 04:19:26;;;;;;;6.47;3.73;;;;;;;12.17;99.32;100071.33;1497500;87;21404;-78
2022/09/12 04:21:52;;;;;;;4.93;3.87;;;;;;;12.13;99.82;100069.98;1500391;87;21434;-78
2022/09/12 04:24:18;;;;;;;5.87;4.27;;;;;;;12.13;99.41;100077.95;1502631;87;21447;-78
2022/09/12 04:26:44;;;;;;;11.33;3.93;;;;;;;12.14;98.69;100072.99;1500672;87;21418;-78
2022/09/12 04:29:13;;;;;;;10.23;4.20;;;;;;;12.19;98.28;100081.25;1499386;87;21286;-78
2022/09/12 04:31:41;;;;;;;12.37;4.37;;;;;;;12.23;98.46;100075.14;1496591;85;21353;-77
2022/09/12 04:34:07;;;;;;;7.53;4.60;;;;;;;12.23;98.00;100068.98;1490745;87;23256;-77
2022/09/12 04:36:34;;;;;;;5.87;4.33;;;;;;;12.25;98.07;100082.92;1492481;87;21285;-78
2022/09/12 04:39:02;;;;;;;7.57;4.37;;;;;;;12.26;97.56;100081.95;1494338;87;22418;-79
2022/09/12 04:41:32;;;;;;;6.07;3.83;;;;;;;12.27;97.74;100078.28;1491156;87;22439;-78
2022/09/12 04:44:05;;;;;;;7.77;3.73;;;;;;;12.30;97.42;100087.23;1488022;87;21543;-77
2022/09/12 04:46:36;;;;;;;6.30;4.20;;;;;;;12.32;97.10;100087.41;1501094;87;21352;-77
2022/09/12 04:49:03;;;;;;;4.27;3.33;;;;;;;12.37;97.17;100090.86;1500494;87;21264;-78
2022/09/12 04:51:34;;;;;;;5.10;4.07;;;;;;;12.42;97.58;100092.52;1495721;86;21382;-78
2022/09/12 04:54:05;;;;;;;8.70;3.87;;;;;;;12.46;97.55;100095.19;1491438;87;22224;-76
2022/09/12 04:56:33;;;;;;;5.40;4.20;;;;;;;12.49;96.94;100093.52;1505203;87;21403;-76
2022/09/12 04:59:00;;;;;;;28.07;6.10;;;;;;;12.53;96.91;100094.83;1495568;87;22328;-77
2022/09/12 05:01:29;;;;;;;8.53;3.63;;;;;;;12.57;97.20;100096.17;1499599;87;22431;-77
2022/09/12 05:03:56;;;;;;;4.70;2.93;;;;;;;12.61;96.42;100097.48;1499492;86;21486;-78
2022/09/12 05:06:29;;;;;;;16.30;3.67;;;;;;;12.65;95.28;100112.06;1496038;87;21344;-77
2022/09/12 05:08:57;;;;;;;4.07;3.43;;;;;;;12.68;94.81;100108.75;1503170;87;21344;-77
2022/09/12 05:11:30;;;;;;;8.60;4.00;;;;;;;12.74;94.50;100114.70;1496875;87;21359;-78
2022/09/12 05:13:57;;;;;;;11.47;3.30;;;;;;;12.80;93.14;100116.68;1501314;87;21433;-77
2022/09/12 05:16:26;;;;;;;7.30;3.30;;;;;;;12.87;92.94;100125.64;1494383;87;21462;-76
2022/09/12 05:18:52;;;;;;;13.17;3.43;;;;;;;12.90;92.43;100120.49;1501066;87;21440;-77
2022/09/12 05:21:22;;;;;;;4.50;3.60;;;;;;;12.90;91.61;100129.28;1498234;87;21418;-77
2022/09/12 05:23:52;;;;;;;6.53;2.87;;;;;;;12.93;91.27;100132.11;1462825;88;21389;-77
2022/09/12 05:26:20;;;;;;;4.33;3.10;;;;;;;12.95;90.31;100134.92;1471478;88;21588;-76
2022/09/12 05:28:48;;;;;;;7.77;3.47;;;;;;;13.00;90.04;100134.39;1473116;88;21523;-76
2022/09/12 05:31:19;;;;;;;6.13;3.20;;;;;;;13.08;91.26;100139.69;1478007;88;21331;-75
2022/09/12 05:33:47;;;;;;;;;;;;;;;13.12;88.53;100134.38;1457493;90;21426;-76
2022/09/12 05:36:21;;;;;;;6.67;3.77;;;;;;;13.20;88.77;100138.81;1448889;90;20397;-75
2022/09/12 05:38:47;;;;;;;6.43;4.40;;;;;;;13.31;89.76;100141.14;1532603;87;22132;-74
2022/09/12 05:41:17;;;;;;;6.37;3.50;;;;;;;13.41;89.99;100132.47;1430460;85;21265;-74
2022/09/12 05:43:45;;;;;;;3.98;3.00;;;;;;;13.53;90.30;100136.39;1415127;87;21273;-75
2022/09/12 05:46:18;;;;;;;6.30;3.63;;;;;;;13.65;89.81;100138.16;1416463;87;21198;-75
2022/09/12 05:48:46;;;;;;;6.50;3.50;;;;;;;13.79;89.74;100140.58;1576386;85;21375;-75
2022/09/12 05:51:18;;;;;;;6.97;3.80;;;;;;;13.90;86.49;100138.84;1420468;85;21302;-75
2022/09/12 05:53:47;;;;;;;4.43;3.33;;;;;;;14.05;87.55;100138.08;1586848;85;21130;-76
2022/09/12 05:56:20;;;;;;;5.33;3.53;;;;;;;14.16;87.14;100141.67;1432525;85;21433;-74
2022/09/12 05:58:49;;;;;;;9.33;4.50;;;;;;;14.27;86.62;100142.58;1585580;85;21183;-76
2022/09/12 06:01:18;;;;;;;9.07;3.63;;;;;;;14.35;84.80;100137.67;1494885;85;22224;-76
2022/09/12 06:03:50;;;;;;;3.23;2.80;;;;;;;14.42;79.29;100135.45;1533926;89;21200;-76
2022/09/12 06:06:20;;;;;;;5.00;3.13;;;;;;;14.54;80.66;100135.06;1553856;85;21264;-76
2022/09/12 06:08:50;;;;;;;8.60;3.33;;;;;;;14.67;82.35;100140.58;1435526;85;21314;-74
2022/09/12 06:11:20;;;;;;;7.47;3.47;;;;;;;14.80;82.13;100138.13;1423418;85;22122;-84
2022/09/12 06:13:47;;;;;;;4.90;3.10;;;;;;;14.93;81.38;100137.48;1472234;85;21403;-82
2022/09/12 06:16:17;;;;;;;4.37;3.33;;;;;;;14.99;78.66;100141.25;1503338;85;22655;-79
2022/09/12 06:18:52;;;;;;;4.65;3.22;;;;;;;15.05;76.11;100140.03;1493011;85;21388;-80
2022/09/12 06:21:19;;;;;;;10.23;3.20;;;;;;;15.10;75.27;100140.31;1477835;85;22018;-79
2022/09/12 06:23:46;;;;;;;4.10;2.80;;;;;;;15.13;70.04;100144.42;1434760;85;21317;-80
2022/09/12 06:26:15;;;;;;;6.80;2.77;;;;;;;15.24;73.73;100148.48;1431062;85;21288;-80
2022/09/12 06:28:44;;;;;;;3.30;2.77;;;;;;;15.30;71.57;100147.73;1421116;85;21250;-81
2022/09/12 06:31:14;;;;;;;6.27;2.67;;;;;;;15.40;67.57;100146.13;1411081;85;21243;-81
2022/09/12 06:33:45;;;;;;;4.00;2.43;;;;;;;15.56;73.20;100141.91;1537767;89;21268;-81
2022/09/12 06:36:15;;;;;;;4.40;2.37;;;;;;;15.68;70.15;100141.80;1401865;88;21368;-80
2022/09/12 06:38:41;;;;;;;3.80;2.33;;;;;;;15.73;69.04;100142.03;1431182;88;21339;-81
2022/09/12 06:41:11;;;;;;;3.60;2.20;;;;;;;15.81;67.60;100145.10;1474273;87;21441;-81
2022/09/12 06:43:40;;;;;;;5.72;2.45;;;;;;;15.89;68.38;100148.17;1495893;87;21397;-80
2022/09/12 06:46:07;;;;;;;5.53;3.20;;;;;;;15.94;67.43;100147.92;1505896;85;21420;-81
2022/09/12 06:48:34;;;;;;;2.70;2.07;;;;;;;16.03;65.01;100152.64;1482489;87;21420;-81
2022/09/12 06:51:06;;;;;;;8.03;3.73;;;;;;;16.05;63.63;100150.58;1457044;89;21313;-81
2022/09/12 06:53:35;;;;;;;6.87;2.73;;;;;;;16.10;64.26;100148.17;1476757;88;21449;-84
2022/09/12 06:56:14;;;;;;;10.37;3.33;;;;;;;16.21;65.91;100151.67;1452076;89;21355;-85
2022/09/12 06:58:42;;;;;;;5.33;2.03;;;;;;;16.27;64.27;100157.27;1492911;87;21465;-83
2022/09/12 07:01:15;;;;;;;4.40;2.80;;;;;;;16.40;65.80;100158.71;1454055;89;21528;-85
2022/09/12 07:03:45;;;;;;;5.53;2.43;;;;;;;16.48;65.65;100158.58;1484281;88;21407;-84
2022/09/12 07:06:14;;;;;;;3.47;2.22;;;;;;;16.57;64.06;100163.28;1479231;87;21435;-84
2022/09/12 07:08:41;;;;;;;8.17;3.20;;;;;;;16.57;61.37;100157.45;1479690;88;22314;-84
2022/09/12 07:11:18;;;;;;;9.27;2.60;;;;;;;16.64;57.80;100160.98;1458308;89;21451;-85
2022/09/12 07:13:51;;;;;;;3.20;2.23;;;;;;;16.69;60.59;100155.89;1485941;88;21301;-84
2022/09/12 07:16:18;;;;;;;3.30;2.57;;;;;;;16.80;61.13;100156.39;1479732;87;21331;-84
2022/09/12 07:18:50;;;;;;;4.17;2.67;;;;;;;16.95;62.44;100150.45;1483500;88;22255;-85
2022/09/12 07:21:16;;;;;;;6.33;2.93;;;;;;;16.99;59.67;100158.38;1461184;89;21869;-85
2022/09/12 07:23:43;;;;;;;5.87;2.40;;;;;;;17.05;61.29;100158.93;1487000;88;21324;-85
2022/09/12 07:26:12;;;;;;;8.07;2.57;;;;;;;17.11;60.07;100156.80;1458025;89;21459;-85
2022/09/12 07:28:38;;;;;;;6.20;2.47;;;;;;;17.17;57.99;100159.72;1479957;88;21360;-86
2022/09/12 07:31:11;;;;;;;7.03;2.70;;;;;;;17.31;57.63;100163.59;1452701;89;21384;-85
2022/09/12 07:33:40;;;;;;;5.47;2.47;;;;;;;17.36;58.00;100159.01;1482725;88;21449;-87
2022/09/12 07:36:10;;;;;;;3.80;2.20;;;;;;;17.40;54.26;100164.27;1488863;87;21383;-84
2022/09/12 07:38:37;;;;;;;;;;;;;;;17.47;54.95;100160.30;1457462;89;21556;-82
2022/09/12 07:41:20;;;;;;;3.63;2.00;;;;;;;17.54;55.28;100161.95;1432650;91;20300;-86
2022/09/12 07:43:47;;;;;;;3.37;2.60;;;;;;;17.63;56.00;100159.11;1483930;87;22414;-86
2022/09/12 07:46:13;;;;;;;3.10;1.95;;;;;;;17.70;54.32;100154.63;1483878;87;22315;-86
2022/09/12 07:48:40;;;;;;;5.15;2.10;;;;;;;17.77;56.02;100160.30;1479217;87;22432;-86
2022/09/12 07:51:09;;;;;;;4.80;2.20;;;;;;;17.84;54.04;100160.86;1457101;89;21399;-86
2022/09/12 07:53:39;;;;;;;6.45;3.27;;;;;;;17.89;52.76;100159.23;1481216;87;21400;-91
2022/09/12 07:56:09;;;;;;;6.37;2.25;;;;;;;17.94;53.07;100161.31;1447944;89;21540;-83
2022/09/12 07:58:37;;;;;;;2.72;2.00;;;;;;;18.07;54.26;100162.69;1486519;87;21367;-82
2022/09/12 08:01:11;;;;;;;11.73;3.22;;;;;;;18.09;52.96;100161.13;1475760;87;21360;-83
2022/09/12 08:03:40;;;;;;;4.97;1.95;;;;;;;18.17;54.44;100170.32;1469023;89;22264;-82
2022/09/12 08:06:13;;;;;;;6.25;2.20;;;;;;;18.25;52.21;100165.59;1481738;88;21438;-84
2022/09/12 08:08:39;;;;;;;5.12;1.95;;;;;;;18.31;54.48;100160.45;1465438;89;21378;-84
2022/09/12 08:11:09;;;;;;;5.20;3.15;;;;;;;18.37;53.78;100157.77;1484295;87;22315;-85
2022/09/12 08:13:38;;;;;;;6.35;2.35;;;;;;;18.53;55.53;100157.05;1455089;89;21414;-85
2022/09/12 08:16:15;;;;;;;3.83;2.47;;;;;;;18.67;55.47;100158.69;1486707;87;21427;-84
2022/09/12 08:18:41;;;;;;;7.08;2.90;;;;;;;18.75;55.49;100151.81;1485394;88;22426;-84
2022/09/12 08:21:13;;;;;;;6.40;2.22;;;;;;;18.81;54.48;100151.50;1457626;89;21333;-85
2022/09/12 08:23:39;;;;;;;4.60;2.52;;;;;;;18.80;52.74;100149.34;1483467;85;21507;-84
2022/09/12 08:26:06;;;;;;;5.05;2.33;;;;;;;18.91;53.93;100150.05;1459252;89;22384;-86
2022/09/12 08:28:34;;;;;;;11.57;2.45;;;;;;;18.98;52.18;100153.23;1481251;88;21397;-81
2022/09/12 08:31:07;;;;;;;8.75;2.92;;;;;;;19.00;53.45;100148.49;1456660;89;21332;-84
2022/09/12 08:33:34;;;;;;;4.50;2.27;;;;;;;19.07;52.47;100147.42;1487130;87;22293;-85
2022/09/12 08:36:08;;;;;;;4.47;2.62;;;;;;;19.14;53.21;100143.41;1488660;87;22270;-84
2022/09/12 08:38:36;;;;;;;3.22;2.45;;;;;;;19.22;53.43;100145.02;1451945;89;22301;-85
2022/09/12 08:41:33;;;;;;;8.70;3.50;;;;;;;19.20;53.65;100140.40;1490150;88;21375;-83
2022/09/12 08:44:22;;;;;;;7.22;3.00;;;;;;;19.23;53.36;100144.00;1484430;87;21434;-84
2022/09/12 08:47:16;;;;;;;4.25;2.95;;;;;;;19.41;54.47;100138.77;1484588;87;22403;-83
2022/09/12 08:50:12;;;;;;;4.97;2.90;;;;;;;19.56;53.59;100144.70;1487282;86;21390;-83
2022/09/12 08:53:06;;;;;;;5.22;2.60;;;;;;;19.55;53.26;100136.86;1458600;89;21444;-84
2022/09/12 08:55:45;;;;;;;3.30;2.42;;;;;;;19.64;52.15;100142.28;1488126;88;22727;-82
2022/09/12 08:58:22;;;;;;;8.35;2.83;;;;;;;19.78;53.38;100131.81;1462365;89;21532;-86
2022/09/12 09:01:27;;;;;;;11.43;3.20;;;;;;;19.95;52.70;100135.34;1483065;85;22612;-86
2022/09/12 09:04:11;;;;;;;5.90;2.27;;;;;;;20.04;53.75;100133.51;1480747;87;21323;-84
2022/09/12 09:07:01;;;;;;;5.95;1.85;;;;;;;19.98;52.88;100136.25;1460180;89;22033;-86
2022/09/12 09:09:47;;;;;;;6.03;2.08;;;;;;;20.19;52.99;100133.20;1474481;88;22379;-84
2022/09/12 09:12:24;;;;;;;6.25;2.35;;;;;;;20.31;50.02;100136.52;1451760;89;21422;-85
2022/09/12 09:15:47;;;;;;;5.03;1.60;;;;;;;20.05;49.96;100120.89;1481808;87;21434;-84
2022/09/12 09:18:30;;;;;;;4.95;1.98;;;;;;;20.05;49.96;100120.89;1451299;89;21444;-84
2022/09/12 09:21:05;;;;;;;10.23;2.35;;;;;;;20.05;50.32;100132.98;1482798;87;21515;-84
2022/09/12 09:23:45;;;;;;;3.90;2.08;;;;;;;20.05;52.79;100127.12;1457665;89;22397;-84
2022/09/12 09:26:17;;;;;;;6.05;2.30;;;;;;;20.09;50.93;100126.68;1487436;87;21561;-85
2022/09/12 09:29:03;;;;;;;5.83;2.02;;;;;;;20.19;52.64;100129.16;1454172;89;21540;-85
2022/09/12 09:31:34;;;;;;;3.98;2.22;;;;;;;20.42;52.84;100125.07;1476780;88;21434;-85
2022/09/12 09:34:01;;;;;;;5.92;2.30;;;;;;;20.63;52.29;100121.19;1446783;88;21613;-82
2022/09/12 09:36:35;;;;;;;7.70;2.40;;;;;;;20.63;52.29;100121.19;1479993;87;21324;-96
2022/09/12 09:39:06;;;;;;;5.05;2.08;;;;;;;20.43;53.39;100121.36;1475037;88;21442;-95
2022/09/12 09:42:02;;;;;;;6.67;2.22;;;;;;;20.31;53.35;100112.34;1429364;91;21488;-81
2022/09/12 09:44:30;;;;;;;13.18;2.45;;;;;;;20.31;53.35;100112.34;1426015;91;21422;-92
2022/09/12 09:46:58;;;;;;;2.98;1.62;;;;;;;20.18;52.96;100127.53;1438167;91;21422;-94
2022/09/12 09:49:29;;;;;;;7.37;1.90;;;;;;;20.02;52.54;100122.18;1436821;91;21487;-93
2022/09/12 09:51:57;;;;;;;3.37;2.15;;;;;;;19.86;51.34;100123.21;1443577;91;21446;-92
2022/09/12 09:54:40;;;;;;;2.52;1.87;;;;;;;19.71;52.79;100125.67;1436367;91;21482;-92
2022/09/12 09:57:38;;;;;;;3.35;1.77;;;;;;;19.64;53.61;100135.56;1432833;91;21548;-95
2022/09/12 10:00:33;;;;;;;2.95;2.08;;;;;;;19.56;53.81;100139.34;1430008;90;22429;-92
2022/09/12 10:03:06;;;;;;;5.12;2.52;;;;;;;19.54;54.45;100140.59;1436066;91;22191;-91
2022/09/12 10:05:37;;;;;;;4.08;2.37;;;;;;;19.39;53.14;100140.33;1432819;91;22464;-94
2022/09/12 10:08:05;;;;;;;2.90;1.90;;;;;;;19.37;54.31;100137.03;1439789;91;22568;-95
2022/09/12 10:10:31;;;;;;;2.58;2.05;;;;;;;19.41;54.72;100133.92;1442820;91;21792;-93
2022/09/12 10:13:11;;;;;;;2.95;2.12;;;;;;;19.41;54.76;100130.72;1435744;91;21391;-91
2022/09/12 10:15:37;;;;;;;7.67;2.72;;;;;;;19.46;54.73;100136.27;1431956;91;22228;-96
2022/09/12 10:18:04;;;;;;;16.40;2.47;;;;;;;19.42;54.99;100125.67;1437335;88;21392;-88
2022/09/12 10:20:44;;;;;;;2.83;1.95;;;;;;;19.53;54.77;100132.21;1448410;89;22405;-95
2022/09/12 10:23:39;;;;;;;4.08;2.33;;;;;;;19.82;55.82;100126.83;1479268;88;21338;-96
2022/09/12 10:26:13;;;;;;;2.60;1.80;;;;;;;19.87;54.10;100128.87;1480555;85;21627;-96
2022/09/12 10:28:52;;;;;;;3.65;2.02;;;;;;;19.79;53.98;100128.59;1441720;89;22258;-96
2022/09/12 10:31:42;;;;;;;5.05;2.92;;;;;;;19.72;55.01;100128.64;1471516;88;21383;-96
2022/09/12 10:34:26;;;;;;;2.33;1.70;;;;;;;19.66;53.50;100133.53;1452288;89;21393;-94
2022/09/12 10:37:01;;;;;;;6.62;2.52;;;;;;;19.60;54.48;100138.39;1487983;86;21479;-79
2022/09/12 10:39:28;;;;;;;8.25;2.27;;;;;;;19.54;54.98;100141.93;1493996;88;21325;-93
2022/09/12 10:41:54;;;;;;;4.75;2.37;;;;;;;19.47;54.92;100139.78;1502242;88;22476;-94
2022/09/12 10:44:29;;;;;;;2.85;2.05;;;;;;;19.59;55.40;100135.37;1462149;89;21334;-94
2022/09/12 10:46:57;;;;;;;5.53;2.22;;;;;;;19.64;54.59;100130.72;1488085;87;21412;-96
2022/09/12 10:49:30;;;;;;;3.15;2.30;;;;;;;19.79;54.12;100128.11;1484891;88;21463;-94
2022/09/12 10:52:02;;;;;;;4.53;2.80;;;;;;;20.10;53.22;100126.97;1451585;89;21459;-95
2022/09/12 10:54:29;;;;;;;5.95;1.65;;;;;;;19.97;51.74;100127.89;1487446;87;21538;-96
2022/09/12 10:57:34;;;;;;;3.22;1.62;;;;;;;20.09;52.04;100122.13;1480600;88;21434;-93
2022/09/12 11:00:16;;;;;;;3.85;2.10;;;;;;;20.39;51.64;100120.14;1460681;89;21517;-96
2022/09/12 11:02:47;;;;;;;3.77;2.33;;;;;;;20.44;50.91;100122.47;1466499;85;22358;-93
2022/09/12 11:05:36;;;;;;;4.55;2.10;;;;;;;20.42;51.96;100121.85;1434822;89;21421;-95
2022/09/12 11:08:07;;;;;;;6.25;1.42;;;;;;;20.32;51.60;100123.41;1475366;88;22343;-95
2022/09/12 11:11:04;;;;;;;5.37;2.83;;;;;;;20.15;51.16;100125.28;1462318;89;21332;-89
2022/09/12 11:13:54;;;;;;;3.33;1.60;;;;;;;20.25;51.42;100120.75;1483545;87;21549;-88
2022/09/12 11:16:43;;;;;;;;;;;;;;;20.65;51.48;100117.23;1472367;86;21331;-94
2022/09/12 11:19:33;;;;;;;2.55;1.70;;;;;;;20.80;50.84;100112.88;1484603;88;20326;-95
2022/09/12 11:22:42;;;;;;;3.98;1.82;;;;;;;20.91;52.24;100119.38;1456638;89;21891;-93
2022/09/12 11:25:33;;;;;;;5.17;2.45;;;;;;;20.78;51.00;100123.55;1480792;87;21471;-96
2022/09/12 11:28:16;;;;;;;1.60;1.47;;;;;;;20.85;51.52;100126.98;1453559;89;21443;-92
2022/09/12 11:31:09;;;;;;;4.62;1.95;;;;;;;21.02;52.28;100121.32;1446464;87;22462;-95
2022/09/12 11:33:45;;;;;;;2.42;1.85;;;;;;;21.02;52.28;100121.32;1479093;87;21537;-92
2022/09/12 11:36:34;;;;;;;2.42;1.52;;;;;;;21.20;51.22;100121.84;1470749;87;21323;-94
2022/09/12 11:39:22;;;;;;;3.55;1.98;;;;;;;21.40;48.78;100120.29;1455327;89;21570;-92
2022/09/12 11:41:53;;;;;;;1.87;1.35;;;;;;;21.62;49.37;100121.45;1476016;87;21309;-93
2022/09/12 11:44:40;;;;;;;25.30;2.25;;;;;;;21.85;47.64;100118.03;1484551;88;22439;-94
2022/09/12 11:47:12;;;;;;;6.00;1.70;;;;;;;22.05;45.94;100119.63;1472953;85;21347;-95
2022/09/12 11:49:47;;;;;;;6.35;1.52;;;;;;;22.03;46.73;100118.48;1482974;88;21523;-96
2022/09/12 11:52:21;;;;;;;2.65;1.10;;;;;;;22.17;46.14;100112.41;1476021;88;21471;-93
2022/09/12 11:55:17;;;;;;;4.37;1.17;;;;;;;22.38;46.22;100107.52;1481997;87;21589;-92